Terminal Aerodrome Forecast
Issued by NWS Sterling, VA

Current Version | Previous Version | Graphics & Text | Print | Product List | Glossary On
Versions: 1 2 3 4 5 6 7 8 9 10 11 12 13 14 15 16 17 18
659
FTUS41 KLWX 040523
TAFMRB
TAF
KMRB 040523Z 0406/0506 26004KT 1/4SM FG OVC003
     FM040800 31007KT 3SM BR SCT003 BKN100
     FM041100 32007KT P6SM SCT150
     FM041300 31008G15KT P6SM SCT130=

USA.gov is the U.S. government's official web portal to all federal, state and local government web resources and services.